sensor_id;sensor_type;location;lat;lon;timestamp;temperature;humidity
16781;DHT22;8507;50.056;8.248;2023-03-02T00:02:15;3.80;99.90
16781;DHT22;8507;50.056;8.248;2023-03-02T00:04:46;3.70;99.90
16781;DHT22;8507;50.056;8.248;2023-03-02T00:07:18;3.70;99.90
16781;DHT22;8507;50.056;8.248;2023-03-02T00:09:44;3.70;99.90
16781;DHT22;8507;50.056;8.248;2023-03-02T00:12:10;3.70;99.90
16781;DHT22;8507;50.056;8.248;2023-03-02T00:14:36;3.70;99.90
16781;DHT22;8507;50.056;8.248;2023-03-02T00:17:03;3.70;99.90
16781;DHT22;8507;50.056;8.248;2023-03-02T00:19:29;3.60;99.90
16781;DHT22;8507;50.056;8.248;2023-03-02T00:21:54;3.60;99.90
16781;DHT22;8507;50.056;8.248;2023-03-02T00:24:20;3.70;99.90
16781;DHT22;8507;50.056;8.248;2023-03-02T00:26:46;3.70;99.90
16781;DHT22;8507;50.056;8.248;2023-03-02T00:29:11;3.70;99.90
16781;DHT22;8507;50.056;8.248;2023-03-02T00:31:37;3.70;99.90
16781;DHT22;8507;50.056;8.248;2023-03-02T00:34:03;3.80;99.90
16781;DHT22;8507;50.056;8.248;2023-03-02T00:36:28;3.60;99.90
16781;DHT22;8507;50.056;8.248;2023-03-02T00:38:54;3.60;99.90
16781;DHT22;8507;50.056;8.248;2023-03-02T00:41:21;3.70;99.90
16781;DHT22;8507;50.056;8.248;2023-03-02T00:43:47;3.70;99.90
16781;DHT22;8507;50.056;8.248;2023-03-02T00:46:17;3.60;99.90
16781;DHT22;8507;50.056;8.248;2023-03-02T00:48:43;3.70;99.90
16781;DHT22;8507;50.056;8.248;2023-03-02T00:51:09;3.60;99.90
16781;DHT22;8507;50.056;8.248;2023-03-02T00:53:36;3.60;99.90
16781;DHT22;8507;50.056;8.248;2023-03-02T00:56:02;3.60;99.90
16781;DHT22;8507;50.056;8.248;2023-03-02T00:58:29;3.70;99.90
16781;DHT22;8507;50.056;8.248;2023-03-02T01:00:54;3.70;99.90
16781;DHT22;8507;50.056;8.248;2023-03-02T01:03:20;3.60;99.90
16781;DHT22;8507;50.056;8.248;2023-03-02T01:05:46;3.60;99.90
16781;DHT22;8507;50.056;8.248;2023-03-02T01:08:12;3.60;99.90
16781;DHT22;8507;50.056;8.248;2023-03-02T01:10:39;3.50;99.90
16781;DHT22;8507;50.056;8.248;2023-03-02T01:13:05;3.50;99.90
16781;DHT22;8507;50.056;8.248;2023-03-02T01:15:32;3.50;99.90
16781;DHT22;8507;50.056;8.248;2023-03-02T01:17:59;3.60;99.90
16781;DHT22;8507;50.056;8.248;2023-03-02T01:20:25;3.50;99.90
16781;DHT22;8507;50.056;8.248;2023-03-02T01:22:51;3.50;99.90
16781;DHT22;8507;50.056;8.248;2023-03-02T01:25:16;3.50;99.90
16781;DHT22;8507;50.056;8.248;2023-03-02T01:27:42;3.50;99.90
16781;DHT22;8507;50.056;8.248;2023-03-02T01:30:08;3.40;99.90
16781;DHT22;8507;50.056;8.248;2023-03-02T01:32:34;3.40;99.90
16781;DHT22;8507;50.056;8.248;2023-03-02T01:35:00;3.40;99.90
16781;DHT22;8507;50.056;8.248;2023-03-02T01:37:25;3.50;99.90
16781;DHT22;8507;50.056;8.248;2023-03-02T01:39:52;3.40;99.90
16781;DHT22;8507;50.056;8.248;2023-03-02T01:42:17;3.40;99.90
16781;DHT22;8507;50.056;8.248;2023-03-02T01:47:35;3.40;99.90
16781;DHT22;8507;50.056;8.248;2023-03-02T01:50:20;3.50;99.90
16781;DHT22;8507;50.056;8.248;2023-03-02T01:52:46;3.50;99.90
16781;DHT22;8507;50.056;8.248;2023-03-02T01:55:15;3.50;99.90
16781;DHT22;8507;50.056;8.248;2023-03-02T01:57:44;3.50;99.90
16781;DHT22;8507;50.056;8.248;2023-03-02T02:00:15;3.50;99.90
16781;DHT22;8507;50.056;8.248;2023-03-02T02:02:43;3.40;99.90
16781;DHT22;8507;50.056;8.248;2023-03-02T02:05:12;3.50;99.90
16781;DHT22;8507;50.056;8.248;2023-03-02T02:07:39;3.60;99.90
16781;DHT22;8507;50.056;8.248;2023-03-02T02:10:05;3.50;99.90
16781;DHT22;8507;50.056;8.248;2023-03-02T02:12:32;3.50;99.90
16781;DHT22;8507;50.056;8.248;2023-03-02T02:14:58;3.60;99.90
16781;DHT22;8507;50.056;8.248;2023-03-02T02:17:27;3.50;99.90
16781;DHT22;8507;50.056;8.248;2023-03-02T02:20:04;3.50;99.90
16781;DHT22;8507;50.056;8.248;2023-03-02T02:28:24;3.60;99.90
16781;DHT22;8507;50.056;8.248;2023-03-02T02:33:33;3.50;99.90
16781;DHT22;8507;50.056;8.248;2023-03-02T02:36:08;3.50;99.90
16781;DHT22;8507;50.056;8.248;2023-03-02T02:38:38;3.50;99.90
16781;DHT22;8507;50.056;8.248;2023-03-02T02:41:06;3.50;99.90
16781;DHT22;8507;50.056;8.248;2023-03-02T02:43:32;3.50;99.90
16781;DHT22;8507;50.056;8.248;2023-03-02T02:45:59;3.50;99.90
16781;DHT22;8507;50.056;8.248;2023-03-02T02:48:27;3.60;99.90
16781;DHT22;8507;50.056;8.248;2023-03-02T02:50:56;3.50;99.90
16781;DHT22;8507;50.056;8.248;2023-03-02T02:53:34;3.50;99.90
16781;DHT22;8507;50.056;8.248;2023-03-02T02:56:02;3.40;99.90
16781;DHT22;8507;50.056;8.248;2023-03-02T02:58:36;3.40;99.90
16781;DHT22;8507;50.056;8.248;2023-03-02T03:01:04;3.50;99.90
16781;DHT22;8507;50.056;8.248;2023-03-02T03:03:33;3.40;99.90
16781;DHT22;8507;50.056;8.248;2023-03-02T03:06:02;3.40;99.90
16781;DHT22;8507;50.056;8.248;2023-03-02T03:11:06;3.40;99.90
16781;DHT22;8507;50.056;8.248;2023-03-02T03:13:32;3.40;99.90
16781;DHT22;8507;50.056;8.248;2023-03-02T03:15:57;3.30;99.90
16781;DHT22;8507;50.056;8.248;2023-03-02T03:18:24;3.30;99.90
16781;DHT22;8507;50.056;8.248;2023-03-02T03:20:50;3.30;99.90
16781;DHT22;8507;50.056;8.248;2023-03-02T03:23:15;3.30;99.90
16781;DHT22;8507;50.056;8.248;2023-03-02T03:25:41;3.30;99.90
16781;DHT22;8507;50.056;8.248;2023-03-02T03:28:06;3.20;99.90
16781;DHT22;8507;50.056;8.248;2023-03-02T03:30:31;3.30;99.90
16781;DHT22;8507;50.056;8.248;2023-03-02T03:32:57;3.20;99.90
16781;DHT22;8507;50.056;8.248;2023-03-02T03:35:22;3.20;99.90
16781;DHT22;8507;50.056;8.248;2023-03-02T03:37:48;3.10;99.90
16781;DHT22;8507;50.056;8.248;2023-03-02T03:40:14;3.10;99.90
16781;DHT22;8507;50.056;8.248;2023-03-02T03:42:39;3.10;99.90
16781;DHT22;8507;50.056;8.248;2023-03-02T03:45:06;3.10;99.90
16781;DHT22;8507;50.056;8.248;2023-03-02T03:47:33;3.10;99.90
16781;DHT22;8507;50.056;8.248;2023-03-02T03:49:59;3.10;99.90
16781;DHT22;8507;50.056;8.248;2023-03-02T03:52:24;3.10;99.90
16781;DHT22;8507;50.056;8.248;2023-03-02T03:54:56;3.10;99.90
16781;DHT22;8507;50.056;8.248;2023-03-02T03:57:22;3.10;99.90
16781;DHT22;8507;50.056;8.248;2023-03-02T03:59:47;3.10;99.90
16781;DHT22;8507;50.056;8.248;2023-03-02T04:02:13;3.10;99.90
16781;DHT22;8507;50.056;8.248;2023-03-02T04:04:38;3.00;99.90
16781;DHT22;8507;50.056;8.248;2023-03-02T04:07:04;3.00;99.90
16781;DHT22;8507;50.056;8.248;2023-03-02T04:09:29;3.00;99.90
16781;DHT22;8507;50.056;8.248;2023-03-02T04:11:58;3.00;99.90
16781;DHT22;8507;50.056;8.248;2023-03-02T04:14:24;2.90;99.90
16781;DHT22;8507;50.056;8.248;2023-03-02T04:16:50;2.90;99.90
16781;DHT22;8507;50.056;8.248;2023-03-02T04:19:16;2.90;99.90
16781;DHT22;8507;50.056;8.248;2023-03-02T04:21:44;2.80;99.90
16781;DHT22;8507;50.056;8.248;2023-03-02T04:24:10;2.80;99.90
16781;DHT22;8507;50.056;8.248;2023-03-02T04:26:37;2.80;99.90
16781;DHT22;8507;50.056;8.248;2023-03-02T04:29:04;2.70;99.90
16781;DHT22;8507;50.056;8.248;2023-03-02T04:31:30;2.70;99.90
16781;DHT22;8507;50.056;8.248;2023-03-02T04:33:56;2.70;99.90
16781;DHT22;8507;50.056;8.248;2023-03-02T04:36:22;2.70;99.90
16781;DHT22;8507;50.056;8.248;2023-03-02T04:38:48;2.70;99.90
16781;DHT22;8507;50.056;8.248;2023-03-02T04:41:15;2.60;99.90
16781;DHT22;8507;50.056;8.248;2023-03-02T04:43:40;2.60;99.90
16781;DHT22;8507;50.056;8.248;2023-03-02T04:46:06;2.60;99.90
16781;DHT22;8507;50.056;8.248;2023-03-02T04:48:32;2.60;99.90
16781;DHT22;8507;50.056;8.248;2023-03-02T04:50:57;2.60;99.90
16781;DHT22;8507;50.056;8.248;2023-03-02T04:53:23;2.50;99.90
16781;DHT22;8507;50.056;8.248;2023-03-02T04:55:48;2.50;99.90
16781;DHT22;8507;50.056;8.248;2023-03-02T04:58:14;2.50;99.90
16781;DHT22;8507;50.056;8.248;2023-03-02T05:00:40;2.40;99.90
16781;DHT22;8507;50.056;8.248;2023-03-02T05:03:06;2.40;99.90
16781;DHT22;8507;50.056;8.248;2023-03-02T05:05:32;2.30;99.90
16781;DHT22;8507;50.056;8.248;2023-03-02T05:07:58;2.30;99.90
16781;DHT22;8507;50.056;8.248;2023-03-02T05:10:24;2.30;99.90
16781;DHT22;8507;50.056;8.248;2023-03-02T05:12:51;2.30;99.90
16781;DHT22;8507;50.056;8.248;2023-03-02T05:15:49;2.30;99.90
16781;DHT22;8507;50.056;8.248;2023-03-02T05:18:16;2.30;99.90
16781;DHT22;8507;50.056;8.248;2023-03-02T05:20:41;2.30;99.90
16781;DHT22;8507;50.056;8.248;2023-03-02T05:23:08;2.40;99.90
16781;DHT22;8507;50.056;8.248;2023-03-02T05:25:36;2.30;99.90
16781;DHT22;8507;50.056;8.248;2023-03-02T05:28:02;2.20;99.90
16781;DHT22;8507;50.056;8.248;2023-03-02T05:30:28;2.20;99.90
16781;DHT22;8507;50.056;8.248;2023-03-02T05:32:56;2.20;99.90
16781;DHT22;8507;50.056;8.248;2023-03-02T05:35:23;2.20;99.90
16781;DHT22;8507;50.056;8.248;2023-03-02T05:37:49;2.20;99.90
16781;DHT22;8507;50.056;8.248;2023-03-02T05:40:18;2.20;99.90
16781;DHT22;8507;50.056;8.248;2023-03-02T05:42:44;2.20;99.90
16781;DHT22;8507;50.056;8.248;2023-03-02T05:45:29;2.20;99.90
16781;DHT22;8507;50.056;8.248;2023-03-02T05:47:55;2.10;99.90
16781;DHT22;8507;50.056;8.248;2023-03-02T05:50:21;2.10;99.90
16781;DHT22;8507;50.056;8.248;2023-03-02T05:52:47;2.10;99.90
16781;DHT22;8507;50.056;8.248;2023-03-02T05:55:13;2.10;99.90
16781;DHT22;8507;50.056;8.248;2023-03-02T05:57:39;2.10;99.90
16781;DHT22;8507;50.056;8.248;2023-03-02T06:00:07;2.20;99.90
16781;DHT22;8507;50.056;8.248;2023-03-02T06:02:34;2.20;99.90
16781;DHT22;8507;50.056;8.248;2023-03-02T06:05:00;2.30;99.90
16781;DHT22;8507;50.056;8.248;2023-03-02T06:07:25;2.30;99.90
16781;DHT22;8507;50.056;8.248;2023-03-02T06:09:51;2.40;99.90
16781;DHT22;8507;50.056;8.248;2023-03-02T06:12:17;2.40;99.90
16781;DHT22;8507;50.056;8.248;2023-03-02T06:14:43;2.50;99.90
16781;DHT22;8507;50.056;8.248;2023-03-02T06:17:09;2.60;99.90
16781;DHT22;8507;50.056;8.248;2023-03-02T06:19:34;2.50;99.90
16781;DHT22;8507;50.056;8.248;2023-03-02T06:22:01;2.50;99.90
16781;DHT22;8507;50.056;8.248;2023-03-02T06:24:26;2.60;99.90
16781;DHT22;8507;50.056;8.248;2023-03-02T06:26:52;2.60;99.90
16781;DHT22;8507;50.056;8.248;2023-03-02T06:29:19;2.60;99.90
16781;DHT22;8507;50.056;8.248;2023-03-02T06:31:44;2.80;99.90
16781;DHT22;8507;50.056;8.248;2023-03-02T06:34:10;2.80;99.90
16781;DHT22;8507;50.056;8.248;2023-03-02T06:36:36;2.90;99.90
16781;DHT22;8507;50.056;8.248;2023-03-02T06:39:06;3.00;99.90
16781;DHT22;8507;50.056;8.248;2023-03-02T06:41:32;3.10;99.90
16781;DHT22;8507;50.056;8.248;2023-03-02T06:43:59;3.20;99.90
16781;DHT22;8507;50.056;8.248;2023-03-02T06:46:24;3.30;99.90
16781;DHT22;8507;50.056;8.248;2023-03-02T06:48:50;3.40;99.90
16781;DHT22;8507;50.056;8.248;2023-03-02T06:51:16;3.60;99.90
16781;DHT22;8507;50.056;8.248;2023-03-02T06:53:42;3.60;99.90
16781;DHT22;8507;50.056;8.248;2023-03-02T06:56:08;3.70;99.90
16781;DHT22;8507;50.056;8.248;2023-03-02T06:58:35;3.80;99.90
16781;DHT22;8507;50.056;8.248;2023-03-02T07:01:00;3.90;99.90
16781;DHT22;8507;50.056;8.248;2023-03-02T07:03:26;4.00;99.90
16781;DHT22;8507;50.056;8.248;2023-03-02T07:05:51;4.10;99.90
16781;DHT22;8507;50.056;8.248;2023-03-02T07:08:17;4.20;99.90
16781;DHT22;8507;50.056;8.248;2023-03-02T07:10:42;4.40;99.90
16781;DHT22;8507;50.056;8.248;2023-03-02T07:13:08;4.40;99.90
16781;DHT22;8507;50.056;8.248;2023-03-02T07:15:33;4.50;99.90
16781;DHT22;8507;50.056;8.248;2023-03-02T07:17:59;4.60;99.90
16781;DHT22;8507;50.056;8.248;2023-03-02T07:20:24;4.70;99.90
16781;DHT22;8507;50.056;8.248;2023-03-02T07:22:50;4.90;99.90
16781;DHT22;8507;50.056;8.248;2023-03-02T07:25:15;5.00;99.90
16781;DHT22;8507;50.056;8.248;2023-03-02T07:27:41;5.10;99.90
16781;DHT22;8507;50.056;8.248;2023-03-02T07:30:07;5.20;99.90
16781;DHT22;8507;50.056;8.248;2023-03-02T07:32:33;5.40;99.90
16781;DHT22;8507;50.056;8.248;2023-03-02T07:34:59;5.50;99.90
16781;DHT22;8507;50.056;8.248;2023-03-02T07:37:25;5.70;99.90
16781;DHT22;8507;50.056;8.248;2023-03-02T07:39:50;5.70;99.90
16781;DHT22;8507;50.056;8.248;2023-03-02T07:42:16;5.60;99.90
16781;DHT22;8507;50.056;8.248;2023-03-02T07:44:42;5.80;99.90
16781;DHT22;8507;50.056;8.248;2023-03-02T07:47:08;5.90;99.90
16781;DHT22;8507;50.056;8.248;2023-03-02T07:49:33;5.90;99.90
16781;DHT22;8507;50.056;8.248;2023-03-02T07:52:02;5.80;99.90
16781;DHT22;8507;50.056;8.248;2023-03-02T07:54:28;5.90;99.90
16781;DHT22;8507;50.056;8.248;2023-03-02T07:56:55;6.20;99.90
16781;DHT22;8507;50.056;8.248;2023-03-02T07:59:22;6.30;99.90
16781;DHT22;8507;50.056;8.248;2023-03-02T08:01:47;6.30;99.90
16781;DHT22;8507;50.056;8.248;2023-03-02T08:04:13;6.30;99.90
16781;DHT22;8507;50.056;8.248;2023-03-02T08:06:40;6.60;99.90
16781;DHT22;8507;50.056;8.248;2023-03-02T08:09:06;6.60;99.90
16781;DHT22;8507;50.056;8.248;2023-03-02T08:11:31;6.60;99.90
16781;DHT22;8507;50.056;8.248;2023-03-02T08:14:01;7.00;99.90
16781;DHT22;8507;50.056;8.248;2023-03-02T08:16:27;7.10;99.90
16781;DHT22;8507;50.056;8.248;2023-03-02T08:18:52;7.00;99.90
16781;DHT22;8507;50.056;8.248;2023-03-02T08:21:20;7.10;99.90
16781;DHT22;8507;50.056;8.248;2023-03-02T08:23:46;7.20;99.90
16781;DHT22;8507;50.056;8.248;2023-03-02T08:26:12;7.40;99.90
16781;DHT22;8507;50.056;8.248;2023-03-02T08:28:38;7.40;99.90
16781;DHT22;8507;50.056;8.248;2023-03-02T08:31:05;7.50;99.90
16781;DHT22;8507;50.056;8.248;2023-03-02T08:33:32;7.60;99.90
16781;DHT22;8507;50.056;8.248;2023-03-02T08:36:01;7.60;99.90
16781;DHT22;8507;50.056;8.248;2023-03-02T08:38:28;7.60;99.90
16781;DHT22;8507;50.056;8.248;2023-03-02T08:40:54;7.80;99.90
16781;DHT22;8507;50.056;8.248;2023-03-02T08:43:22;7.70;99.90
16781;DHT22;8507;50.056;8.248;2023-03-02T08:45:52;7.70;99.90
16781;DHT22;8507;50.056;8.248;2023-03-02T08:48:22;7.70;99.90
16781;DHT22;8507;50.056;8.248;2023-03-02T08:53:28;8.00;99.90
16781;DHT22;8507;50.056;8.248;2023-03-02T08:55:53;8.10;99.90
16781;DHT22;8507;50.056;8.248;2023-03-02T08:58:19;7.90;99.90
16781;DHT22;8507;50.056;8.248;2023-03-02T09:00:44;7.90;99.90
16781;DHT22;8507;50.056;8.248;2023-03-02T09:03:10;8.10;99.90
16781;DHT22;8507;50.056;8.248;2023-03-02T09:05:36;8.10;99.90
16781;DHT22;8507;50.056;8.248;2023-03-02T09:08:02;8.30;99.90
16781;DHT22;8507;50.056;8.248;2023-03-02T09:10:28;8.10;99.90
16781;DHT22;8507;50.056;8.248;2023-03-02T09:12:53;8.50;99.90
16781;DHT22;8507;50.056;8.248;2023-03-02T09:15:19;8.80;99.90
16781;DHT22;8507;50.056;8.248;2023-03-02T09:17:44;8.90;99.90
16781;DHT22;8507;50.056;8.248;2023-03-02T09:20:10;8.90;99.90
16781;DHT22;8507;50.056;8.248;2023-03-02T09:22:36;9.20;99.90
16781;DHT22;8507;50.056;8.248;2023-03-02T09:25:05;9.10;99.90
16781;DHT22;8507;50.056;8.248;2023-03-02T09:27:31;9.00;99.90
16781;DHT22;8507;50.056;8.248;2023-03-02T09:29:57;8.30;99.90
16781;DHT22;8507;50.056;8.248;2023-03-02T09:32:23;8.60;99.90
16781;DHT22;8507;50.056;8.248;2023-03-02T09:34:48;8.90;99.90
16781;DHT22;8507;50.056;8.248;2023-03-02T09:37:14;9.00;99.90
16781;DHT22;8507;50.056;8.248;2023-03-02T09:39:40;9.10;99.90
16781;DHT22;8507;50.056;8.248;2023-03-02T09:42:28;8.80;99.90
16781;DHT22;8507;50.056;8.248;2023-03-02T09:48:10;8.60;99.90
16781;DHT22;8507;50.056;8.248;2023-03-02T09:51:00;8.30;99.90
16781;DHT22;8507;50.056;8.248;2023-03-02T09:53:51;8.80;99.90
16781;DHT22;8507;50.056;8.248;2023-03-02T09:56:22;9.10;99.90
16781;DHT22;8507;50.056;8.248;2023-03-02T10:01:42;9.40;99.90
16781;DHT22;8507;50.056;8.248;2023-03-02T10:04:24;9.10;99.90
16781;DHT22;8507;50.056;8.248;2023-03-02T10:07:18;9.20;99.90
16781;DHT22;8507;50.056;8.248;2023-03-02T10:09:41;9.20;99.90
16781;DHT22;8507;50.056;8.248;2023-03-02T10:26:26;9.50;99.90
16781;DHT22;8507;50.056;8.248;2023-03-02T10:31:39;9.60;99.90
16781;DHT22;8507;50.056;8.248;2023-03-02T10:34:09;9.80;99.90
16781;DHT22;8507;50.056;8.248;2023-03-02T10:36:37;9.80;99.90
16781;DHT22;8507;50.056;8.248;2023-03-02T10:39:09;9.90;99.90
16781;DHT22;8507;50.056;8.248;2023-03-02T10:41:52;10.00;99.90
16781;DHT22;8507;50.056;8.248;2023-03-02T10:44:35;9.80;99.90
16781;DHT22;8507;50.056;8.248;2023-03-02T10:47:03;10.00;99.90
16781;DHT22;8507;50.056;8.248;2023-03-02T10:49:30;10.50;99.90
16781;DHT22;8507;50.056;8.248;2023-03-02T10:52:01;10.30;99.90
16781;DHT22;8507;50.056;8.248;2023-03-02T10:54:30;10.30;99.90
16781;DHT22;8507;50.056;8.248;2023-03-02T10:57:01;10.20;99.90
16781;DHT22;8507;50.056;8.248;2023-03-02T10:59:41;10.80;99.90
16781;DHT22;8507;50.056;8.248;2023-03-02T11:02:20;10.90;99.90
16781;DHT22;8507;50.056;8.248;2023-03-02T11:07:32;10.50;99.90
16781;DHT22;8507;50.056;8.248;2023-03-02T11:10:03;10.90;99.90
16781;DHT22;8507;50.056;8.248;2023-03-02T11:12:30;11.00;99.90
16781;DHT22;8507;50.056;8.248;2023-03-02T11:15:23;11.30;99.90
16781;DHT22;8507;50.056;8.248;2023-03-02T11:20:50;11.10;99.90
16781;DHT22;8507;50.056;8.248;2023-03-02T11:23:22;11.00;99.90
16781;DHT22;8507;50.056;8.248;2023-03-02T11:25:53;11.10;99.90
16781;DHT22;8507;50.056;8.248;2023-03-02T11:30:55;11.20;99.90
16781;DHT22;8507;50.056;8.248;2023-03-02T11:33:37;11.50;99.90
16781;DHT22;8507;50.056;8.248;2023-03-02T11:36:28;10.90;99.90
16781;DHT22;8507;50.056;8.248;2023-03-02T11:39:01;11.10;99.90
16781;DHT22;8507;50.056;8.248;2023-03-02T11:41:34;11.60;99.90
16781;DHT22;8507;50.056;8.248;2023-03-02T11:44:15;11.60;99.90
16781;DHT22;8507;50.056;8.248;2023-03-02T11:46:54;11.40;99.90
16781;DHT22;8507;50.056;8.248;2023-03-02T11:49:30;11.40;99.90
16781;DHT22;8507;50.056;8.248;2023-03-02T11:52:00;11.20;99.90
16781;DHT22;8507;50.056;8.248;2023-03-02T11:55:00;11.30;99.90
16781;DHT22;8507;50.056;8.248;2023-03-02T11:57:34;11.20;99.90
16781;DHT22;8507;50.056;8.248;2023-03-02T12:00:03;11.50;99.90
16781;DHT22;8507;50.056;8.248;2023-03-02T12:02:29;12.00;99.90
16781;DHT22;8507;50.056;8.248;2023-03-02T12:05:21;12.00;99.90
16781;DHT22;8507;50.056;8.248;2023-03-02T12:08:06;11.80;99.90
16781;DHT22;8507;50.056;8.248;2023-03-02T12:10:37;11.80;99.90
16781;DHT22;8507;50.056;8.248;2023-03-02T12:13:19;11.90;99.90
16781;DHT22;8507;50.056;8.248;2023-03-02T12:15:47;12.20;99.90
16781;DHT22;8507;50.056;8.248;2023-03-02T12:18:42;12.20;99.90
16781;DHT22;8507;50.056;8.248;2023-03-02T12:21:22;12.00;99.90
16781;DHT22;8507;50.056;8.248;2023-03-02T12:28:56;12.10;99.90
16781;DHT22;8507;50.056;8.248;2023-03-02T12:31:22;12.40;99.90
16781;DHT22;8507;50.056;8.248;2023-03-02T12:33:50;12.70;99.90
16781;DHT22;8507;50.056;8.248;2023-03-02T12:36:26;12.70;99.90
16781;DHT22;8507;50.056;8.248;2023-03-02T12:41:41;12.30;99.90
16781;DHT22;8507;50.056;8.248;2023-03-02T12:44:51;12.40;99.90
16781;DHT22;8507;50.056;8.248;2023-03-02T12:47:20;12.60;99.90
16781;DHT22;8507;50.056;8.248;2023-03-02T12:49:55;12.60;99.90
16781;DHT22;8507;50.056;8.248;2023-03-02T12:55:16;12.80;99.90
16781;DHT22;8507;50.056;8.248;2023-03-02T12:57:50;12.60;99.90
16781;DHT22;8507;50.056;8.248;2023-03-02T13:00:19;12.60;99.90
16781;DHT22;8507;50.056;8.248;2023-03-02T13:02:51;12.60;99.90
16781;DHT22;8507;50.056;8.248;2023-03-02T13:05:24;13.10;99.90
16781;DHT22;8507;50.056;8.248;2023-03-02T13:13:43;12.90;99.90
16781;DHT22;8507;50.056;8.248;2023-03-02T13:16:22;13.30;99.90
16781;DHT22;8507;50.056;8.248;2023-03-02T13:18:50;12.90;99.90
16781;DHT22;8507;50.056;8.248;2023-03-02T13:21:20;12.80;99.90
16781;DHT22;8507;50.056;8.248;2023-03-02T13:23:50;13.10;99.90
16781;DHT22;8507;50.056;8.248;2023-03-02T13:26:34;13.00;99.90
16781;DHT22;8507;50.056;8.248;2023-03-02T13:29:18;13.10;99.90
16781;DHT22;8507;50.056;8.248;2023-03-02T13:31:45;12.90;99.90
16781;DHT22;8507;50.056;8.248;2023-03-02T13:34:29;12.70;99.90
16781;DHT22;8507;50.056;8.248;2023-03-02T13:36:58;12.90;99.90
16781;DHT22;8507;50.056;8.248;2023-03-02T13:39:28;13.30;99.90
16781;DHT22;8507;50.056;8.248;2023-03-02T13:41:56;12.90;99.90
16781;DHT22;8507;50.056;8.248;2023-03-02T13:44:27;12.60;99.90
16781;DHT22;8507;50.056;8.248;2023-03-02T13:46:54;12.80;99.90
16781;DHT22;8507;50.056;8.248;2023-03-02T13:49:34;13.10;99.90
16781;DHT22;8507;50.056;8.248;2023-03-02T13:52:05;13.10;99.90
16781;DHT22;8507;50.056;8.248;2023-03-02T13:54:36;13.20;99.90
16781;DHT22;8507;50.056;8.248;2023-03-02T13:57:03;13.10;99.90
16781;DHT22;8507;50.056;8.248;2023-03-02T13:59:29;13.00;99.90
16781;DHT22;8507;50.056;8.248;2023-03-02T14:01:59;13.20;99.90
16781;DHT22;8507;50.056;8.248;2023-03-02T14:04:25;13.00;99.90
16781;DHT22;8507;50.056;8.248;2023-03-02T14:06:52;13.10;99.90
16781;DHT22;8507;50.056;8.248;2023-03-02T14:09:18;13.10;99.90
16781;DHT22;8507;50.056;8.248;2023-03-02T14:11:49;12.70;99.90
16781;DHT22;8507;50.056;8.248;2023-03-02T14:14:22;12.90;99.90
16781;DHT22;8507;50.056;8.248;2023-03-02T14:16:48;12.90;99.90
16781;DHT22;8507;50.056;8.248;2023-03-02T14:19:14;13.00;99.90
16781;DHT22;8507;50.056;8.248;2023-03-02T14:21:43;12.70;99.90
16781;DHT22;8507;50.056;8.248;2023-03-02T14:24:09;12.70;99.90
16781;DHT22;8507;50.056;8.248;2023-03-02T14:26:36;12.90;99.90
16781;DHT22;8507;50.056;8.248;2023-03-02T14:29:31;13.10;99.90
16781;DHT22;8507;50.056;8.248;2023-03-02T14:31:59;13.00;99.90
16781;DHT22;8507;50.056;8.248;2023-03-02T14:34:26;12.40;99.90
16781;DHT22;8507;50.056;8.248;2023-03-02T14:36:55;12.60;99.90
16781;DHT22;8507;50.056;8.248;2023-03-02T14:39:23;12.70;99.90
16781;DHT22;8507;50.056;8.248;2023-03-02T14:41:51;12.80;99.90
16781;DHT22;8507;50.056;8.248;2023-03-02T14:44:17;12.60;99.90
16781;DHT22;8507;50.056;8.248;2023-03-02T14:46:43;12.60;99.90
16781;DHT22;8507;50.056;8.248;2023-03-02T14:49:08;12.70;99.90
16781;DHT22;8507;50.056;8.248;2023-03-02T14:51:35;12.60;99.90
16781;DHT22;8507;50.056;8.248;2023-03-02T14:54:04;12.70;99.90
16781;DHT22;8507;50.056;8.248;2023-03-02T14:56:31;12.30;99.90
16781;DHT22;8507;50.056;8.248;2023-03-02T14:58:57;12.40;99.90
16781;DHT22;8507;50.056;8.248;2023-03-02T15:01:23;12.60;99.90
16781;DHT22;8507;50.056;8.248;2023-03-02T15:03:49;12.60;99.90
16781;DHT22;8507;50.056;8.248;2023-03-02T15:06:27;12.60;99.90
16781;DHT22;8507;50.056;8.248;2023-03-02T15:08:54;12.50;99.90
16781;DHT22;8507;50.056;8.248;2023-03-02T15:11:20;12.20;99.90
16781;DHT22;8507;50.056;8.248;2023-03-02T15:13:45;12.30;99.90
16781;DHT22;8507;50.056;8.248;2023-03-02T15:16:11;12.10;99.90
16781;DHT22;8507;50.056;8.248;2023-03-02T15:18:37;12.00;99.90
16781;DHT22;8507;50.056;8.248;2023-03-02T15:21:03;12.10;99.90
16781;DHT22;8507;50.056;8.248;2023-03-02T15:23:29;12.00;99.90
16781;DHT22;8507;50.056;8.248;2023-03-02T15:26:01;12.20;99.90
16781;DHT22;8507;50.056;8.248;2023-03-02T15:28:28;12.20;99.90
16781;DHT22;8507;50.056;8.248;2023-03-02T15:30:54;12.10;99.90
16781;DHT22;8507;50.056;8.248;2023-03-02T15:33:20;11.90;99.90
16781;DHT22;8507;50.056;8.248;2023-03-02T15:35:55;11.90;99.90
16781;DHT22;8507;50.056;8.248;2023-03-02T15:38:20;12.00;99.90
16781;DHT22;8507;50.056;8.248;2023-03-02T15:40:46;11.90;99.90
16781;DHT22;8507;50.056;8.248;2023-03-02T15:43:11;11.90;99.90
16781;DHT22;8507;50.056;8.248;2023-03-02T15:48:12;11.90;99.90
16781;DHT22;8507;50.056;8.248;2023-03-02T15:50:38;11.90;99.90
16781;DHT22;8507;50.056;8.248;2023-03-02T15:53:04;11.80;99.90
16781;DHT22;8507;50.056;8.248;2023-03-02T15:55:29;11.70;99.90
16781;DHT22;8507;50.056;8.248;2023-03-02T15:57:55;11.60;99.90
16781;DHT22;8507;50.056;8.248;2023-03-02T16:00:22;11.50;99.90
16781;DHT22;8507;50.056;8.248;2023-03-02T16:02:48;11.50;99.90
16781;DHT22;8507;50.056;8.248;2023-03-02T16:05:14;11.40;99.90
16781;DHT22;8507;50.056;8.248;2023-03-02T16:07:40;11.40;99.90
16781;DHT22;8507;50.056;8.248;2023-03-02T16:10:06;11.30;99.90
16781;DHT22;8507;50.056;8.248;2023-03-02T16:12:32;11.20;99.90
16781;DHT22;8507;50.056;8.248;2023-03-02T16:14:57;11.20;99.90
16781;DHT22;8507;50.056;8.248;2023-03-02T16:17:23;11.10;99.90
16781;DHT22;8507;50.056;8.248;2023-03-02T16:19:48;11.00;99.90
16781;DHT22;8507;50.056;8.248;2023-03-02T16:22:14;10.90;99.90
16781;DHT22;8507;50.056;8.248;2023-03-02T16:24:41;10.80;99.90
16781;DHT22;8507;50.056;8.248;2023-03-02T16:27:06;10.80;99.90
16781;DHT22;8507;50.056;8.248;2023-03-02T16:29:32;10.70;99.90
16781;DHT22;8507;50.056;8.248;2023-03-02T16:31:57;10.70;99.90
16781;DHT22;8507;50.056;8.248;2023-03-02T16:34:23;10.60;99.90
16781;DHT22;8507;50.056;8.248;2023-03-02T16:36:48;10.60;99.90
16781;DHT22;8507;50.056;8.248;2023-03-02T16:39:14;10.60;99.90
16781;DHT22;8507;50.056;8.248;2023-03-02T16:41:41;10.50;99.90
16781;DHT22;8507;50.056;8.248;2023-03-02T16:44:07;10.40;99.90
16781;DHT22;8507;50.056;8.248;2023-03-02T16:46:36;10.30;99.90
16781;DHT22;8507;50.056;8.248;2023-03-02T16:49:02;10.30;99.90
16781;DHT22;8507;50.056;8.248;2023-03-02T16:51:28;10.20;99.90
16781;DHT22;8507;50.056;8.248;2023-03-02T16:53:54;10.10;99.90
16781;DHT22;8507;50.056;8.248;2023-03-02T16:56:19;10.00;99.90
16781;DHT22;8507;50.056;8.248;2023-03-02T16:58:45;10.00;99.90
16781;DHT22;8507;50.056;8.248;2023-03-02T17:01:16;9.90;99.90
16781;DHT22;8507;50.056;8.248;2023-03-02T17:03:42;9.80;99.90
16781;DHT22;8507;50.056;8.248;2023-03-02T17:06:10;9.80;99.90
16781;DHT22;8507;50.056;8.248;2023-03-02T17:08:36;9.70;99.90
16781;DHT22;8507;50.056;8.248;2023-03-02T17:11:02;9.60;99.90
16781;DHT22;8507;50.056;8.248;2023-03-02T17:13:27;9.50;99.90